Time;durP1;ratioP1;P1;durP2;ratioP2;P2;SDS_P1;SDS_P2;PMS_P1;PMS_P2;Temp;Humidity;BMP_temperature;BMP_pressure;BME280_temperature;BME280_humidity;BME280_pressure;Samples;Min_cycle;Max_cycle;Signal;HPM_P1;HPM_P2
2022/03/08 00:01:56;;;;;;;38.53;24.95;;;0.70;99.90;;;;;;4991067;28;20081;-69
2022/03/08 00:04:24;;;;;;;39.33;22.13;;;0.70;99.90;;;;;;5005790;28;20050;-69
2022/03/08 00:06:50;;;;;;;37.00;22.48;;;0.70;99.90;;;;;;5006446;28;20042;-69
2022/03/08 00:09:15;;;;;;;33.38;22.13;;;0.60;99.90;;;;;;5006553;28;20104;-69
2022/03/08 00:11:41;;;;;;;44.08;23.48;;;0.50;99.90;;;;;;4989908;28;20050;-69
2022/03/08 00:14:07;;;;;;;42.88;24.58;;;0.50;99.90;;;;;;5006411;28;20045;-69
2022/03/08 00:16:33;;;;;;;36.70;21.52;;;0.50;99.90;;;;;;5003970;28;20053;-69
2022/03/08 00:19:00;;;;;;;47.22;22.77;;;0.50;99.90;;;;;;5009215;28;20050;-70
2022/03/08 00:21:26;;;;;;;33.67;21.27;;;0.40;99.90;;;;;;5007973;28;20068;-69
2022/03/08 00:23:52;;;;;;;46.92;24.48;;;0.40;99.90;;;;;;5004203;28;20832;-69
2022/03/08 00:26:17;;;;;;;48.42;27.40;;;0.30;99.90;;;;;;5008391;28;20046;-69
2022/03/08 00:28:43;;;;;;;41.63;23.23;;;0.30;99.90;;;;;;5005936;28;20053;-69
2022/03/08 00:31:09;;;;;;;38.15;22.10;;;0.30;99.90;;;;;;4991690;28;20041;-69
2022/03/08 00:33:34;;;;;;;37.17;22.45;;;0.30;99.90;;;;;;5002558;28;20042;-69
2022/03/08 00:36:00;;;;;;;38.55;23.13;;;0.40;99.90;;;;;;5006269;28;20456;-69
2022/03/08 00:38:26;;;;;;;45.35;25.08;;;0.30;99.90;;;;;;5003395;28;20511;-70
2022/03/08 00:40:52;;;;;;;39.92;22.15;;;0.30;99.90;;;;;;5004250;28;20388;-69
2022/03/08 00:43:17;;;;;;;50.65;25.65;;;0.30;99.90;;;;;;5006683;28;20045;-70
2022/03/08 00:45:43;;;;;;;41.10;24.50;;;0.30;99.90;;;;;;5006039;28;20064;-70
2022/03/08 00:48:09;;;;;;;52.13;25.55;;;0.30;99.90;;;;;;5006730;28;20045;-69
2022/03/08 00:50:36;;;;;;;41.28;24.50;;;0.20;99.90;;;;;;5007281;28;20046;-70
2022/03/08 00:53:02;;;;;;;40.15;23.63;;;0.20;99.90;;;;;;5005779;28;20061;-69
2022/03/08 00:55:29;;;;;;;41.33;24.40;;;0.20;99.90;;;;;;5005742;28;20085;-69
2022/03/08 00:57:55;;;;;;;39.50;24.13;;;0.10;99.90;;;;;;5007846;28;20034;-69
2022/03/08 01:00:24;;;;;;;42.28;23.83;;;0.00;99.90;;;;;;5009581;28;20632;-70
2022/03/08 01:02:50;;;;;;;34.20;20.55;;;0.00;99.90;;;;;;5004916;28;20875;-70
2022/03/08 01:05:16;;;;;;;41.00;23.63;;;0.00;99.90;;;;;;5003858;28;20054;-69
2022/03/08 01:07:42;;;;;;;42.47;24.52;;;0.00;99.90;;;;;;5008469;28;20056;-69
2022/03/08 01:10:12;;;;;;;41.45;23.77;;;-0.10;99.90;;;;;;4999631;28;20551;-69
2022/03/08 01:12:38;;;;;;;43.92;24.95;;;-0.10;99.90;;;;;;5009122;28;20042;-69
2022/03/08 01:15:06;;;;;;;37.25;21.52;;;-0.10;99.90;;;;;;5006792;28;20050;-70
2022/03/08 01:17:31;;;;;;;43.40;25.97;;;-0.10;99.90;;;;;;5003923;28;20053;-70
2022/03/08 01:19:57;;;;;;;38.45;24.52;;;-0.10;99.90;;;;;;5006410;28;20046;-69
2022/03/08 01:22:23;;;;;;;40.70;23.80;;;-0.20;99.90;;;;;;5003327;28;20137;-70
2022/03/08 01:24:49;;;;;;;42.05;22.27;;;-0.20;99.90;;;;;;5005687;28;20125;-69
2022/03/08 01:27:15;;;;;;;42.58;25.30;;;-0.20;99.90;;;;;;5005349;28;20054;-70
2022/03/08 01:29:41;;;;;;;42.15;24.23;;;-0.20;99.90;;;;;;5010991;28;20050;-69
2022/03/08 01:32:07;;;;;;;40.67;23.58;;;-0.30;99.90;;;;;;5012832;28;20052;-70
2022/03/08 01:34:34;;;;;;;45.63;25.55;;;-0.30;99.90;;;;;;5005875;28;20116;-69
2022/03/08 01:37:00;;;;;;;45.67;27.00;;;-0.30;99.90;;;;;;5001904;28;20165;-69
2022/03/08 01:39:28;;;;;;;42.47;24.33;;;-0.40;99.90;;;;;;5000023;28;20120;-69
2022/03/08 01:41:53;;;;;;;38.05;24.45;;;-0.40;99.90;;;;;;5004184;28;20044;-69
2022/03/08 01:44:19;;;;;;;44.38;26.42;;;-0.40;99.90;;;;;;5009157;28;20046;-70
2022/03/08 01:46:46;;;;;;;45.00;27.77;;;-0.40;99.90;;;;;;5005812;28;20405;-69
2022/03/08 01:49:12;;;;;;;43.90;25.88;;;-0.40;99.90;;;;;;5004556;28;20575;-70
2022/03/08 01:51:39;;;;;;;46.78;24.80;;;-0.40;99.90;;;;;;5003000;28;20044;-70
2022/03/08 01:54:06;;;;;;;40.28;25.85;;;-0.40;99.90;;;;;;5005668;28;20092;-70
2022/03/08 01:56:33;;;;;;;44.15;24.63;;;-0.40;99.90;;;;;;4995745;28;20037;-70
2022/03/08 01:59:02;;;;;;;44.63;26.90;;;-0.40;99.90;;;;;;5003232;28;20127;-70
2022/03/08 02:01:29;;;;;;;49.33;26.75;;;-0.40;99.90;;;;;;5012780;28;20566;-70
2022/03/08 02:03:54;;;;;;;44.60;27.33;;;-0.40;99.90;;;;;;5003746;28;20046;-70
2022/03/08 02:06:20;;;;;;;44.65;27.05;;;-0.40;99.90;;;;;;5004224;28;20042;-70
2022/03/08 02:08:46;;;;;;;45.35;24.85;;;-0.40;99.90;;;;;;5006436;28;20046;-69
2022/03/08 02:11:13;;;;;;;46.72;27.17;;;-0.40;99.90;;;;;;5002760;28;20044;-70
2022/03/08 02:13:40;;;;;;;48.63;27.88;;;-0.40;99.90;;;;;;5000415;28;20050;-69
2022/03/08 02:16:06;;;;;;;42.27;26.80;;;-0.50;99.90;;;;;;4999799;28;20707;-69
2022/03/08 02:18:32;;;;;;;44.38;26.20;;;-0.50;99.90;;;;;;5007628;28;20097;-69
2022/03/08 02:21:03;;;;;;;47.95;26.00;;;-0.50;99.90;;;;;;5005641;28;20057;-70
2022/03/08 02:23:29;;;;;;;44.58;26.30;;;-0.50;99.90;;;;;;5003494;28;20830;-70
2022/03/08 02:25:55;;;;;;;43.58;24.63;;;-0.50;99.90;;;;;;5002787;28;20046;-70
2022/03/08 02:28:22;;;;;;;42.28;24.67;;;-0.50;99.90;;;;;;5003536;28;20041;-70
2022/03/08 02:30:47;;;;;;;40.10;25.88;;;-0.60;99.90;;;;;;5008221;28;20049;-69
2022/03/08 02:33:13;;;;;;;40.95;23.92;;;-0.60;99.90;;;;;;5009749;28;20057;-68
2022/03/08 02:35:39;;;;;;;48.80;25.63;;;-0.60;99.90;;;;;;5009076;28;20049;-70
2022/03/08 02:38:06;;;;;;;45.08;26.05;;;-0.60;99.90;;;;;;5009839;28;20037;-69
2022/03/08 02:40:35;;;;;;;47.42;27.58;;;-0.60;99.90;;;;;;5006183;28;20049;-69
2022/03/08 02:43:03;;;;;;;42.42;26.23;;;-0.60;99.90;;;;;;4998451;28;20080;-69
2022/03/08 02:45:28;;;;;;;54.00;26.30;;;-0.60;99.90;;;;;;5006628;28;20057;-69
2022/03/08 02:47:54;;;;;;;44.97;26.90;;;-0.60;99.90;;;;;;5012309;28;20050;-69
2022/03/08 02:50:21;;;;;;;45.20;24.73;;;-0.70;99.90;;;;;;5008331;28;20054;-70
2022/03/08 02:52:51;;;;;;;43.58;25.95;;;-0.70;99.90;;;;;;5005566;28;20053;-69
2022/03/08 02:55:19;;;;;;;42.83;27.05;;;-0.70;99.90;;;;;;5006251;28;20570;-69
2022/03/08 02:57:44;;;;;;;45.85;27.42;;;-0.80;99.90;;;;;;5004865;28;20487;-70
2022/03/08 03:00:13;;;;;;;45.38;26.88;;;-0.80;99.90;;;;;;5012311;28;20053;-69
2022/03/08 03:02:39;;;;;;;43.58;25.20;;;-0.80;99.90;;;;;;5010414;28;20049;-70
2022/03/08 03:05:06;;;;;;;46.38;26.98;;;-0.90;99.90;;;;;;4993848;28;20038;-69
2022/03/08 03:07:32;;;;;;;44.70;25.92;;;-0.90;99.90;;;;;;5009689;28;20374;-69
2022/03/08 03:09:58;;;;;;;48.05;26.40;;;-0.90;99.90;;;;;;5006041;28;20052;-69
2022/03/08 03:12:23;;;;;;;55.67;26.92;;;-0.90;99.90;;;;;;5005490;28;20054;-70
2022/03/08 03:14:49;;;;;;;50.53;27.55;;;-0.90;99.90;;;;;;5008268;28;20073;-70
2022/03/08 03:17:17;;;;;;;41.20;24.58;;;-1.00;99.90;;;;;;5012981;28;20041;-69
2022/03/08 03:19:43;;;;;;;46.75;25.73;;;-1.00;99.90;;;;;;5008972;28;20042;-69
2022/03/08 03:22:09;;;;;;;54.95;29.33;;;-1.00;99.90;;;;;;5004915;28;20060;-70
2022/03/08 03:24:35;;;;;;;44.88;27.65;;;-1.00;99.90;;;;;;5009381;28;20041;-70
2022/03/08 03:27:01;;;;;;;56.53;31.63;;;-1.00;99.90;;;;;;5004032;28;20057;-70
2022/03/08 03:29:27;;;;;;;46.88;28.33;;;-1.00;99.90;;;;;;4993006;28;20125;-69
2022/03/08 03:31:53;;;;;;;45.58;27.20;;;-1.00;99.90;;;;;;5008187;28;20038;-69
2022/03/08 03:34:19;;;;;;;51.50;28.50;;;-1.00;99.90;;;;;;5013337;28;20552;-70
2022/03/08 03:36:44;;;;;;;45.38;28.83;;;-1.00;99.90;;;;;;5007909;28;20092;-69
2022/03/08 03:39:10;;;;;;;48.95;26.88;;;-1.00;99.90;;;;;;5002566;28;20081;-70
2022/03/08 03:41:35;;;;;;;52.67;29.67;;;-1.00;99.90;;;;;;5002475;28;20050;-69
2022/03/08 03:44:02;;;;;;;53.22;28.33;;;-1.00;99.90;;;;;;5007215;28;20037;-69
2022/03/08 03:46:28;;;;;;;50.33;29.85;;;-1.00;99.90;;;;;;5008379;28;20124;-70
2022/03/08 03:48:54;;;;;;;52.38;28.92;;;-1.00;99.90;;;;;;5005672;28;20100;-70
2022/03/08 03:51:20;;;;;;;48.65;27.55;;;-1.10;99.90;;;;;;5007327;28;20046;-70
2022/03/08 03:53:46;;;;;;;50.40;28.77;;;-1.10;99.90;;;;;;5005291;28;20098;-69
2022/03/08 03:56:11;;;;;;;49.67;27.48;;;-1.10;99.90;;;;;;5006236;28;20124;-70
2022/03/08 03:58:37;;;;;;;64.07;29.33;;;-1.10;99.90;;;;;;5008636;28;20777;-69
2022/03/08 04:01:04;;;;;;;48.70;28.23;;;-1.10;99.90;;;;;;5005707;28;20053;-69
2022/03/08 04:03:30;;;;;;;59.90;29.10;;;-1.10;99.90;;;;;;5000762;28;20050;-69
2022/03/08 04:05:56;;;;;;;51.45;27.58;;;-1.20;99.90;;;;;;5002473;28;20112;-70
2022/03/08 04:08:22;;;;;;;50.55;27.15;;;-1.20;99.90;;;;;;5006307;28;20523;-69
2022/03/08 04:10:48;;;;;;;51.45;28.80;;;-1.20;99.90;;;;;;5005617;28;20053;-69
2022/03/08 04:13:14;;;;;;;56.17;30.65;;;-1.30;99.90;;;;;;5011328;28;20121;-70
2022/03/08 04:15:41;;;;;;;53.10;28.95;;;-1.30;99.90;;;;;;5005962;28;20049;-69
2022/03/08 04:18:08;;;;;;;47.35;27.52;;;-1.30;99.90;;;;;;5008340;28;20048;-69
2022/03/08 04:20:35;;;;;;;45.70;28.05;;;-1.30;99.90;;;;;;5002123;28;20423;-70
2022/03/08 04:23:01;;;;;;;45.78;27.00;;;-1.30;99.90;;;;;;5003627;28;20064;-69
2022/03/08 04:25:27;;;;;;;53.08;28.75;;;-1.40;99.90;;;;;;5003439;28;20042;-69
2022/03/08 04:27:53;;;;;;;67.18;33.47;;;-1.40;99.90;;;;;;5006837;28;20045;-70
2022/03/08 04:30:19;;;;;;;52.92;27.88;;;-1.40;99.90;;;;;;5003983;28;20515;-69
2022/03/08 04:32:45;;;;;;;66.28;34.63;;;-1.40;99.90;;;;;;5008479;28;20050;-70
2022/03/08 04:35:11;;;;;;;63.45;32.30;;;-1.40;99.90;;;;;;5001346;28;20483;-69
2022/03/08 04:37:37;;;;;;;67.68;34.90;;;-1.40;99.90;;;;;;5002802;28;20046;-70
2022/03/08 04:40:06;;;;;;;64.03;33.05;;;-1.40;99.90;;;;;;5013644;28;20478;-70
2022/03/08 04:42:31;;;;;;;54.22;32.13;;;-1.40;99.90;;;;;;5003325;28;20108;-69
2022/03/08 04:44:57;;;;;;;63.60;34.70;;;-1.40;99.90;;;;;;5012052;28;20054;-69
2022/03/08 04:47:23;;;;;;;61.97;33.33;;;-1.40;99.90;;;;;;5006481;28;20499;-69
2022/03/08 04:49:48;;;;;;;68.15;34.10;;;-1.40;99.90;;;;;;5008428;28;20049;-69
2022/03/08 04:52:14;;;;;;;57.33;32.58;;;-1.40;99.90;;;;;;5004658;28;20443;-70
2022/03/08 04:54:40;;;;;;;78.13;36.88;;;-1.40;99.90;;;;;;5009761;28;20051;-70
2022/03/08 04:57:06;;;;;;;68.32;37.55;;;-1.30;99.90;;;;;;5008388;28;20050;-71
2022/03/08 04:59:31;;;;;;;62.80;34.92;;;-1.30;99.90;;;;;;5003962;28;20470;-69
2022/03/08 05:01:58;;;;;;;59.83;34.08;;;-1.30;99.90;;;;;;5008038;28;20065;-70
2022/03/08 05:04:24;;;;;;;64.43;35.67;;;-1.30;99.90;;;;;;5006003;28;20056;-70
2022/03/08 05:06:50;;;;;;;64.82;34.88;;;-1.30;99.90;;;;;;5003112;28;20045;-69
2022/03/08 05:09:16;;;;;;;59.92;34.47;;;-1.30;99.90;;;;;;5008142;28;20042;-69
2022/03/08 05:11:43;;;;;;;58.80;33.92;;;-1.40;99.90;;;;;;5008227;28;20050;-70
2022/03/08 05:14:08;;;;;;;67.75;35.33;;;-1.40;99.90;;;;;;5007354;28;20053;-70
2022/03/08 05:16:34;;;;;;;78.93;37.25;;;-1.40;99.90;;;;;;5005120;28;20038;-69
2022/03/08 05:19:00;;;;;;;67.00;36.90;;;-1.40;99.90;;;;;;5009287;28;20048;-70
2022/03/08 05:21:25;;;;;;;77.80;39.65;;;-1.40;99.90;;;;;;5009813;28;20095;-70
2022/03/08 05:23:51;;;;;;;61.35;35.92;;;-1.40;99.90;;;;;;5010482;28;20042;-69
2022/03/08 05:26:17;;;;;;;72.47;38.17;;;-1.40;99.90;;;;;;5014772;28;20042;-70
2022/03/08 05:28:42;;;;;;;70.53;38.40;;;-1.40;99.90;;;;;;5003926;28;20053;-70
2022/03/08 05:31:12;;;;;;;70.30;37.42;;;-1.40;99.90;;;;;;5005289;28;20068;-69
2022/03/08 05:33:39;;;;;;;83.38;41.30;;;-1.40;99.90;;;;;;5006952;28;20045;-70
2022/03/08 05:36:05;;;;;;;75.57;40.25;;;-1.40;99.90;;;;;;5006505;28;20530;-69
2022/03/08 05:38:31;;;;;;;67.53;35.67;;;-1.30;99.90;;;;;;5005038;28;20089;-70
2022/03/08 05:40:59;;;;;;;70.03;37.97;;;-1.40;99.90;;;;;;5007411;28;20654;-70
2022/03/08 05:43:26;;;;;;;76.43;37.28;;;-1.30;99.90;;;;;;5007859;28;20585;-70
2022/03/08 05:45:53;;;;;;;65.60;37.85;;;-1.40;99.90;;;;;;5003004;28;20042;-70
2022/03/08 05:48:18;;;;;;;70.65;37.78;;;-1.40;99.90;;;;;;5006073;28;20038;-70
2022/03/08 05:50:44;;;;;;;66.25;36.47;;;-1.30;99.90;;;;;;5005093;28;20048;-71
2022/03/08 05:53:09;;;;;;;69.53;37.13;;;-1.30;99.90;;;;;;5007023;28;20169;-69
2022/03/08 05:55:35;;;;;;;72.50;40.58;;;-1.30;99.90;;;;;;5001902;28;20430;-69
2022/03/08 05:58:01;;;;;;;79.38;38.67;;;-1.30;99.90;;;;;;5005516;28;20408;-69
2022/03/08 06:00:26;;;;;;;80.65;43.17;;;-1.30;99.90;;;;;;5002756;28;20392;-70
2022/03/08 06:02:52;;;;;;;76.97;42.30;;;-1.30;99.90;;;;;;5008467;28;20045;-70
2022/03/08 06:05:18;;;;;;;73.25;41.15;;;-1.40;99.90;;;;;;5008476;28;20038;-70
2022/03/08 06:07:44;;;;;;;76.80;43.85;;;-1.40;99.90;;;;;;5013790;28;20038;-70
2022/03/08 06:10:10;;;;;;;81.90;43.13;;;-1.40;99.90;;;;;;5011579;28;20052;-70
2022/03/08 06:12:36;;;;;;;71.20;38.15;;;-1.40;99.90;;;;;;5008594;28;20069;-69
2022/03/08 06:15:03;;;;;;;74.20;37.95;;;-1.40;99.90;;;;;;5010247;28;20046;-70
2022/03/08 06:17:29;;;;;;;80.07;39.25;;;-1.40;99.90;;;;;;5016909;28;20042;-70
2022/03/08 06:19:54;;;;;;;76.38;38.67;;;-1.40;99.90;;;;;;5010839;28;20048;-71
2022/03/08 06:22:21;;;;;;;74.38;37.42;;;-1.40;99.90;;;;;;5008404;28;20504;-70
2022/03/08 06:24:47;;;;;;;78.65;39.13;;;-1.30;99.90;;;;;;5003817;28;20045;-70
2022/03/08 06:27:13;;;;;;;71.10;39.97;;;-1.40;99.90;;;;;;5009458;28;20046;-71
2022/03/08 06:29:41;;;;;;;67.68;38.65;;;-1.30;99.90;;;;;;5008152;28;20049;-71
2022/03/08 06:32:07;;;;;;;77.43;38.40;;;-1.20;99.90;;;;;;5009201;28;20052;-71
2022/03/08 06:34:33;;;;;;;75.25;38.38;;;-1.10;99.90;;;;;;5008430;28;20386;-70
2022/03/08 06:36:58;;;;;;;63.47;37.28;;;-1.00;99.90;;;;;;5009667;28;20100;-71
2022/03/08 06:39:24;;;;;;;61.88;37.75;;;-0.90;99.90;;;;;;5007589;28;20538;-70
2022/03/08 06:41:50;;;;;;;68.45;37.72;;;-0.70;99.90;;;;;;5005675;28;20420;-69
2022/03/08 06:44:16;;;;;;;70.47;36.92;;;-0.60;99.90;;;;;;5009676;28;20082;-68
2022/03/08 06:46:44;;;;;;;62.85;34.08;;;-0.40;99.90;;;;;;5011373;28;20147;-68
2022/03/08 06:49:13;;;;;;;;;;;-0.20;99.90;;;;;;5002768;28;20121;-69
2022/03/08 06:51:40;;;;;;;73.93;40.42;;;0.10;99.90;;;;;;5008614;28;19921;-69
2022/03/08 06:54:08;;;;;;;69.03;37.90;;;0.30;99.90;;;;;;5005474;28;20053;-68
2022/03/08 06:56:35;;;;;;;73.60;40.60;;;0.50;99.90;;;;;;5009179;28;20050;-67
2022/03/08 06:59:03;;;;;;;62.50;36.78;;;0.80;99.90;;;;;;5006102;28;20100;-69
2022/03/08 07:01:29;;;;;;;70.43;39.17;;;1.00;99.90;;;;;;5008611;28;20048;-70
2022/03/08 07:03:55;;;;;;;71.07;38.92;;;1.30;99.90;;;;;;5009701;28;21286;-69
2022/03/08 07:06:21;;;;;;;72.35;38.83;;;1.40;99.90;;;;;;5007712;28;20574;-70
2022/03/08 07:08:46;;;;;;;70.60;39.13;;;1.60;99.90;;;;;;5011506;28;20103;-69
2022/03/08 07:11:13;;;;;;;58.38;35.67;;;1.70;99.90;;;;;;5009926;28;20049;-69
2022/03/08 07:13:39;;;;;;;70.80;38.65;;;1.80;99.90;;;;;;5004684;28;20077;-69
2022/03/08 07:16:05;;;;;;;61.60;36.28;;;2.00;99.90;;;;;;5010285;28;20080;-70
2022/03/08 07:18:31;;;;;;;63.72;37.70;;;2.20;99.90;;;;;;5006697;28;20042;-69
2022/03/08 07:21:00;;;;;;;64.35;37.13;;;2.20;99.90;;;;;;5005312;28;20415;-69
2022/03/08 07:23:25;;;;;;;;;;;2.30;99.90;;;;;;5009579;28;20057;-70
2022/03/08 07:25:51;;;;;;;54.55;33.30;;;2.30;99.90;;;;;;5006768;28;19922;-69
2022/03/08 07:28:17;;;;;;;54.47;34.92;;;2.30;99.90;;;;;;5007303;28;20132;-70
2022/03/08 07:30:42;;;;;;;58.10;35.00;;;2.40;99.90;;;;;;5011418;28;20491;-69
2022/03/08 07:33:08;;;;;;;58.88;35.85;;;2.40;99.90;;;;;;5007241;28;20096;-69
2022/03/08 07:35:34;;;;;;;63.92;34.75;;;2.50;99.90;;;;;;5007958;28;20125;-69
2022/03/08 07:37:59;;;;;;;58.33;36.13;;;2.70;99.90;;;;;;5012271;28;20053;-69
2022/03/08 07:40:25;;;;;;;60.30;34.72;;;2.80;99.90;;;;;;5004169;28;20088;-70
2022/03/08 07:42:51;;;;;;;59.40;33.63;;;2.80;99.90;;;;;;5002600;28;20424;-70
2022/03/08 07:45:17;;;;;;;53.55;33.78;;;2.80;99.90;;;;;;5007116;28;20045;-70
2022/03/08 07:47:42;;;;;;;55.22;35.63;;;2.90;99.90;;;;;;5010876;28;20124;-69
2022/03/08 07:50:09;;;;;;;53.25;32.53;;;3.00;99.90;;;;;;5006507;28;20104;-69
2022/03/08 07:52:35;;;;;;;62.03;33.67;;;3.00;99.90;;;;;;5003527;28;20123;-71
2022/03/08 07:55:01;;;;;;;56.35;34.83;;;3.00;99.90;;;;;;5002330;28;20136;-70
2022/03/08 07:57:27;;;;;;;48.95;33.38;;;3.00;99.90;;;;;;4999674;28;20050;-70
2022/03/08 07:59:52;;;;;;;59.40;32.50;;;3.10;99.90;;;;;;5000672;28;20034;-70
2022/03/08 08:02:18;;;;;;;57.13;34.67;;;3.10;99.90;;;;;;4999704;28;20045;-70
2022/03/08 08:04:44;;;;;;;56.05;35.10;;;3.20;99.90;;;;;;4998467;28;20045;-70
2022/03/08 08:07:09;;;;;;;63.85;32.85;;;3.30;99.90;;;;;;5000038;28;20046;-71
2022/03/08 08:09:35;;;;;;;57.20;33.42;;;3.40;99.90;;;;;;5000078;28;20115;-69
2022/03/08 08:12:01;;;;;;;54.33;34.08;;;3.60;99.90;;;;;;4999255;28;20061;-69
2022/03/08 08:14:26;;;;;;;47.45;31.10;;;3.80;99.90;;;;;;5000463;28;20141;-70
2022/03/08 08:16:52;;;;;;;50.17;32.78;;;3.90;99.90;;;;;;4984595;28;20076;-70
2022/03/08 08:19:18;;;;;;;48.92;31.67;;;4.00;99.90;;;;;;5001457;28;20057;-71
2022/03/08 08:21:44;;;;;;;56.72;33.03;;;4.10;99.90;;;;;;5000567;28;20858;-70
2022/03/08 08:24:10;;;;;;;50.20;29.20;;;4.20;99.90;;;;;;5001314;28;20129;-71
2022/03/08 08:26:35;;;;;;;44.03;29.98;;;4.20;99.90;;;;;;5000619;28;20103;-70
2022/03/08 08:29:02;;;;;;;40.22;30.23;;;4.20;99.90;;;;;;4998092;28;20054;-70
2022/03/08 08:31:30;;;;;;;48.95;29.17;;;4.20;99.90;;;;;;4999018;28;20045;-69
2022/03/08 08:33:56;;;;;;;45.13;29.20;;;4.20;99.90;;;;;;4998869;28;20321;-70
2022/03/08 08:36:22;;;;;;;43.13;29.35;;;4.20;99.90;;;;;;4997588;28;20052;-70
2022/03/08 08:38:47;;;;;;;49.03;30.60;;;4.30;99.90;;;;;;4999335;28;20516;-71
2022/03/08 08:41:13;;;;;;;44.83;29.00;;;4.30;99.90;;;;;;4999460;28;20037;-69
2022/03/08 08:43:39;;;;;;;50.38;29.88;;;4.30;99.90;;;;;;4998236;28;20058;-70
2022/03/08 08:46:05;;;;;;;44.15;28.95;;;4.40;99.90;;;;;;5000003;28;20050;-69
2022/03/08 08:48:30;;;;;;;54.67;30.67;;;4.40;99.90;;;;;;4999687;28;20360;-69
2022/03/08 08:50:57;;;;;;;50.83;31.98;;;4.40;99.90;;;;;;4998123;28;20054;-69
2022/03/08 08:53:23;;;;;;;45.97;30.17;;;4.50;99.90;;;;;;5000611;28;20042;-70
2022/03/08 08:55:50;;;;;;;49.75;28.85;;;4.50;99.90;;;;;;5000517;28;20412;-70
2022/03/08 08:58:16;;;;;;;46.13;28.60;;;4.60;99.90;;;;;;5001496;28;20038;-69
2022/03/08 09:00:41;;;;;;;48.97;30.20;;;4.70;99.90;;;;;;5000133;28;20046;-69
2022/03/08 09:03:14;;;;;;;42.70;29.15;;;4.80;99.90;;;;;;5002540;28;20054;-68
2022/03/08 09:05:43;;;;;;;50.97;27.63;;;5.00;99.90;;;;;;5000231;28;20049;-68
2022/03/08 09:08:09;;;;;;;40.55;27.23;;;5.10;99.90;;;;;;5000926;28;20057;-69
2022/03/08 09:10:35;;;;;;;42.78;29.23;;;5.30;99.90;;;;;;5001213;28;20054;-69
2022/03/08 09:13:01;;;;;;;44.33;28.80;;;5.50;99.90;;;;;;5000220;28;20423;-69
2022/03/08 09:15:27;;;;;;;50.30;29.10;;;5.70;99.90;;;;;;5001328;28;20100;-70
2022/03/08 09:17:53;;;;;;;36.45;25.73;;;5.90;99.90;;;;;;4998778;28;20041;-71
2022/03/08 09:20:19;;;;;;;46.72;29.08;;;6.00;99.90;;;;;;5001342;28;20046;-71
2022/03/08 09:22:45;;;;;;;39.78;27.67;;;6.00;99.90;;;;;;4999868;28;20050;-71
2022/03/08 09:25:11;;;;;;;42.75;27.90;;;6.20;99.90;;;;;;5001446;28;20100;-71
2022/03/08 09:27:37;;;;;;;39.05;26.83;;;6.30;99.90;;;;;;5001505;28;20045;-71
2022/03/08 09:30:05;;;;;;;37.30;25.67;;;6.40;99.90;;;;;;4983030;28;20584;-69
2022/03/08 09:32:31;;;;;;;39.30;26.70;;;6.40;99.90;;;;;;5000290;28;20128;-69
2022/03/08 09:34:57;;;;;;;38.67;26.05;;;6.60;99.90;;;;;;5015509;28;20056;-69
2022/03/08 09:37:22;;;;;;;35.92;26.10;;;6.80;99.90;;;;;;5002007;28;20052;-69
2022/03/08 09:39:48;;;;;;;37.15;24.33;;;6.90;99.90;;;;;;5004368;28;20049;-71
2022/03/08 09:42:18;;;;;;;31.73;23.88;;;7.10;99.90;;;;;;5003647;28;20092;-71
2022/03/08 09:44:43;;;;;;;34.50;23.05;;;7.10;99.90;;;;;;4987352;28;20061;-71
2022/03/08 09:47:09;;;;;;;31.70;22.08;;;7.30;99.90;;;;;;5005296;28;20105;-69
2022/03/08 09:49:41;;;;;;;33.08;23.48;;;7.40;99.90;;;;;;5006111;28;20041;-69
2022/03/08 09:52:09;;;;;;;37.42;22.65;;;7.50;99.90;;;;;;4987936;28;20058;-69
2022/03/08 09:54:34;;;;;;;29.60;21.67;;;7.60;99.90;;;;;;5004883;28;20053;-70
2022/03/08 09:57:07;;;;;;;30.58;21.38;;;7.80;99.90;;;;;;5005700;28;20053;-69
2022/03/08 09:59:33;;;;;;;34.28;22.70;;;8.00;99.70;;;;;;5003704;28;20057;-69
2022/03/08 10:01:59;;;;;;;33.38;21.73;;;7.90;98.30;;;;;;5004089;28;20050;-70
2022/03/08 10:04:24;;;;;;;33.45;19.88;;;8.00;98.10;;;;;;5003663;28;20041;-69
2022/03/08 10:06:51;;;;;;;29.38;21.00;;;8.10;95.90;;;;;;5005579;28;20053;-69
2022/03/08 10:09:24;;;;;;;30.17;20.42;;;8.20;95.70;;;;;;5003609;28;20133;-70
2022/03/08 10:11:55;;;;;;;29.17;19.65;;;8.30;95.10;;;;;;5004142;28;20038;-70
2022/03/08 10:14:42;;;;;;;30.40;20.38;;;8.40;92.50;;;;;;5003712;28;20042;-69
2022/03/08 10:17:29;;;;;;;38.08;21.80;;;8.50;92.00;;;;;;5004707;28;20056;-69
2022/03/08 10:19:54;;;;;;;26.75;19.85;;;8.60;93.20;;;;;;5002975;28;20084;-68
2022/03/08 10:22:25;;;;;;;36.00;19.60;;;8.70;92.90;;;;;;5000254;28;20057;-68
2022/03/08 10:24:52;;;;;;;25.23;18.92;;;8.80;92.10;;;;;;5001627;28;20049;-68
2022/03/08 10:27:19;;;;;;;29.17;20.02;;;8.90;90.60;;;;;;4999185;28;20050;-68
2022/03/08 10:29:49;;;;;;;26.95;18.52;;;8.90;90.50;;;;;;5003448;28;20068;-68
2022/03/08 10:32:19;;;;;;;27.88;19.52;;;9.00;90.20;;;;;;5002699;28;20428;-69
2022/03/08 10:34:52;;;;;;;28.13;19.80;;;9.00;86.70;;;;;;5002175;28;20537;-69
2022/03/08 10:37:20;;;;;;;26.20;18.92;;;9.00;86.70;;;;;;5002628;28;20045;-69
2022/03/08 10:39:57;;;;;;;28.90;18.85;;;9.10;86.50;;;;;;5000908;28;20058;-69
2022/03/08 10:42:32;;;;;;;30.50;20.23;;;9.10;80.90;;;;;;5001162;28;20084;-69
2022/03/08 10:45:06;;;;;;;31.90;20.85;;;9.30;83.80;;;;;;5002845;28;20053;-69
2022/03/08 10:47:42;;;;;;;26.30;19.02;;;9.40;84.00;;;;;;5002433;28;20041;-70
2022/03/08 10:50:10;;;;;;;25.88;18.35;;;9.50;80.70;;;;;;5001718;28;20050;-69
2022/03/08 10:52:39;;;;;;;26.90;17.38;;;9.40;83.60;;;;;;4986655;28;20052;-69
2022/03/08 10:55:20;;;;;;;25.58;19.90;;;9.40;81.50;;;;;;5002840;28;20056;-67
2022/03/08 10:57:57;;;;;;;27.67;18.88;;;9.50;81.20;;;;;;5003181;28;20546;-69
2022/03/08 11:00:28;;;;;;;23.73;17.33;;;9.70;82.10;;;;;;5002129;28;20060;-69
2022/03/08 11:03:00;;;;;;;24.77;17.90;;;9.60;81.80;;;;;;5005065;28;20132;-69
2022/03/08 11:05:30;;;;;;;19.30;14.93;;;9.70;81.70;;;;;;5018885;28;20848;-69
2022/03/08 11:07:57;;;;;;;25.45;17.70;;;9.80;81.50;;;;;;5003508;28;20900;-68
2022/03/08 11:10:24;;;;;;;21.92;16.20;;;9.90;81.00;;;;;;5002706;28;20053;-69
2022/03/08 11:12:52;;;;;;;21.85;14.93;;;10.00;78.40;;;;;;5003049;28;20062;-68
2022/03/08 11:15:19;;;;;;;18.80;14.82;;;10.10;79.10;;;;;;5003760;28;20062;-69
2022/03/08 11:17:48;;;;;;;21.42;15.00;;;10.00;78.00;;;;;;5000363;28;20575;-68
2022/03/08 11:20:17;;;;;;;25.65;14.82;;;10.00;77.10;;;;;;5000677;28;20056;-67
2022/03/08 11:22:43;;;;;;;17.80;13.45;;;10.00;75.30;;;;;;5001085;28;20054;-67
2022/03/08 11:25:11;;;;;;;19.90;15.02;;;9.90;73.90;;;;;;5002979;28;20053;-67
2022/03/08 11:27:43;;;;;;;20.67;13.48;;;9.90;74.80;;;;;;5002715;28;20762;-67
2022/03/08 11:30:15;;;;;;;24.08;14.05;;;10.10;73.70;;;;;;5003632;28;20050;-67
2022/03/08 11:32:53;;;;;;;20.48;14.13;;;10.10;70.40;;;;;;5004388;28;20095;-66
2022/03/08 11:35:36;;;;;;;18.92;13.77;;;10.10;71.80;;;;;;5002085;28;20049;-67
2022/03/08 11:38:04;;;;;;;18.52;12.75;;;10.10;69.80;;;;;;4986289;28;20191;-68
2022/03/08 11:40:34;;;;;;;20.50;14.05;;;10.00;72.40;;;;;;5000320;28;20053;-67
2022/03/08 11:43:04;;;;;;;15.85;11.98;;;10.10;71.30;;;;;;4999411;28;20066;-68
2022/03/08 11:45:32;;;;;;;17.63;12.55;;;10.30;69.50;;;;;;5001545;28;20141;-68
2022/03/08 11:47:59;;;;;;;20.35;12.50;;;10.30;71.00;;;;;;5000339;28;20480;-71
2022/03/08 11:50:33;;;;;;;19.03;13.03;;;10.40;71.60;;;;;;5001321;28;20046;-69
2022/03/08 11:53:06;;;;;;;24.90;13.20;;;10.40;69.70;;;;;;4999656;28;20718;-68
2022/03/08 11:55:45;;;;;;;22.55;14.82;;;10.50;70.40;;;;;;5000648;28;20045;-68
2022/03/08 11:58:20;;;;;;;21.40;14.65;;;10.50;68.00;;;;;;5002071;28;20522;-68
2022/03/08 12:00:48;;;;;;;19.48;13.80;;;10.50;71.30;;;;;;5001417;28;20050;-68
2022/03/08 12:03:23;;;;;;;20.33;13.80;;;10.60;68.40;;;;;;5002358;28;20050;-68
2022/03/08 12:06:03;;;;;;;20.77;14.48;;;10.60;68.20;;;;;;4998062;28;20188;-68
2022/03/08 12:08:29;;;;;;;16.45;13.27;;;10.70;66.50;;;;;;5001557;28;20155;-68
2022/03/08 12:11:12;;;;;;;17.50;13.02;;;10.80;67.20;;;;;;4999692;28;20157;-68
2022/03/08 12:13:40;;;;;;;18.63;13.35;;;10.80;66.80;;;;;;5001460;28;20072;-68
2022/03/08 12:16:09;;;;;;;;;;;10.80;67.50;;;;;;5001847;28;20583;-68
2022/03/08 12:18:50;;;;;;;22.50;11.65;;;10.80;64.30;;;;;;5000530;28;19921;-68
2022/03/08 12:21:22;;;;;;;29.63;13.45;;;10.90;64.20;;;;;;4998975;28;20087;-68
2022/03/08 12:24:09;;;;;;;18.52;13.85;;;10.80;67.10;;;;;;5002350;28;20184;-68
2022/03/08 12:26:55;;;;;;;27.87;13.80;;;10.80;62.20;;;;;;5001526;28;20061;-68
2022/03/08 12:29:55;;;;;;;21.90;14.77;;;10.80;65.20;;;;;;4983900;28;20050;-68
2022/03/08 12:32:23;;;;;;;17.67;12.68;;;10.80;64.90;;;;;;4994959;28;20064;-68
2022/03/08 12:34:52;;;;;;;22.58;13.70;;;10.90;64.00;;;;;;5001512;28;20084;-67